createdAt,value
2022-09-09T05:03:32.101Z,1.5
2022-09-09T05:05:46.421Z,2
2022-09-09T05:08:00.766Z,1.6
2022-09-09T05:10:15.113Z,2.3
2022-09-09T05:12:29.461Z,2.1
2022-09-09T05:14:43.807Z,1.7
2022-09-09T05:16:58.308Z,2.3
2022-09-09T05:19:12.751Z,2.1
2022-09-09T05:21:27.077Z,1.8
2022-09-09T05:23:41.601Z,2.1
2022-09-09T05:25:55.944Z,1.4
2022-09-09T05:28:10.297Z,1.6
2022-09-09T05:30:24.633Z,2.3
2022-09-09T05:32:38.988Z,1.8
2022-09-09T05:34:53.358Z,1.6
2022-09-09T05:37:07.659Z,1.5
2022-09-09T05:39:23.091Z,1.8
2022-09-09T05:41:37.424Z,1.7
2022-09-09T05:43:51.920Z,1.6
2022-09-09T05:46:06.233Z,1.9
2022-09-09T05:48:20.634Z,1.6
2022-09-09T05:50:35.007Z,1.6
2022-09-09T05:52:49.341Z,2
2022-09-09T05:55:03.673Z,1.5
2022-09-09T05:57:18.005Z,1.9
2022-09-09T05:59:32.359Z,2.3
2022-09-09T06:01:46.805Z,2
2022-09-09T06:04:01.077Z,1.9
2022-09-09T06:06:15.440Z,1.7
2022-09-09T06:08:29.769Z,1.7
2022-09-09T06:10:44.139Z,1.8
2022-09-09T06:12:58.505Z,2
2022-09-09T06:15:12.827Z,1.7
2022-09-09T06:17:27.209Z,1.8
2022-09-09T06:19:41.555Z,1.9
2022-09-09T06:21:55.929Z,2.3
2022-09-09T06:24:10.269Z,2.1
2022-09-09T06:26:24.655Z,1.7
2022-09-09T06:28:38.994Z,1.4
2022-09-09T06:30:53.350Z,1.9
2022-09-09T06:33:07.690Z,1.9
2022-09-09T06:35:22.201Z,1.8
2022-09-09T06:37:36.644Z,1.9
2022-09-09T06:39:51.058Z,1.8
2022-09-09T06:42:05.374Z,1.9
2022-09-09T06:44:19.745Z,2.1
2022-09-09T06:46:35.116Z,2.2
2022-09-09T06:48:49.457Z,1.3
2022-09-09T06:51:03.790Z,1.8
2022-09-09T06:53:18.188Z,2.1
2022-09-09T06:55:32.506Z,2
2022-09-09T06:57:46.861Z,2.3
2022-09-09T07:00:01.212Z,2.1
2022-09-09T07:02:15.604Z,1.9
2022-09-09T07:04:30.438Z,1.8
2022-09-09T07:06:44.768Z,1.8
2022-09-09T07:08:59.201Z,1.7
2022-09-09T07:11:14.489Z,2.2
2022-09-09T07:13:28.874Z,2.1
2022-09-09T07:15:43.255Z,2.1
2022-09-09T07:17:57.562Z,1.9
2022-09-09T07:20:11.961Z,2
2022-09-09T07:22:26.311Z,2.3
2022-09-09T07:24:40.734Z,1.7
2022-09-09T07:26:55.120Z,2.1
2022-09-09T07:29:09.440Z,2.4
2022-09-09T07:31:23.893Z,1.8
2022-09-09T07:33:38.247Z,2.1
2022-09-09T07:35:52.490Z,2
2022-09-09T07:38:06.935Z,2.5
2022-09-09T07:40:21.414Z,2.3
2022-09-09T07:42:35.746Z,1.8
2022-09-09T07:44:50.079Z,2.2
2022-09-09T07:47:04.467Z,1.9
2022-09-09T07:49:24.498Z,1.9
2022-09-09T07:51:35.450Z,1.6
2022-09-09T07:53:49.785Z,1.8
2022-09-09T07:56:05.242Z,1.7
2022-09-09T07:58:19.604Z,2.1
2022-09-09T08:00:33.931Z,1.9
2022-09-09T08:02:48.413Z,1.4
2022-09-09T08:05:02.739Z,2.1
2022-09-09T08:07:17.127Z,1.5
2022-09-09T08:09:31.473Z,1.5
2022-09-09T08:11:45.855Z,1.6
2022-09-09T08:14:02.558Z,1.4
2022-09-09T08:16:16.535Z,1.8
2022-09-09T08:18:30.850Z,1.6
2022-09-09T08:20:45.194Z,1.2
2022-09-09T08:22:59.573Z,1.4
2022-09-09T08:25:13.933Z,1.6
2022-09-09T08:27:28.310Z,1.7
2022-09-09T08:29:42.663Z,1.6
2022-09-09T08:31:57.049Z,1.9
2022-09-09T08:34:11.438Z,2.1
2022-09-09T08:36:25.782Z,1.6
2022-09-09T08:38:41.118Z,1.6
2022-09-09T08:40:55.511Z,1.6
2022-09-09T08:43:09.843Z,1.3
2022-09-09T08:45:24.190Z,1.6
2022-09-09T08:47:38.525Z,1.6
2022-09-09T08:49:52.877Z,2.1
2022-09-09T08:52:07.208Z,1.8
2022-09-09T08:54:41.703Z,1.6
2022-09-09T08:56:38.894Z,1.7
2022-09-09T08:58:53.271Z,1.2
2022-09-09T09:01:07.600Z,1.6
2022-09-09T09:03:21.936Z,1.1
2022-09-09T09:05:36.359Z,1.6
2022-09-09T09:07:50.719Z,1.6
2022-09-09T09:10:15.139Z,1.6
2022-09-09T09:12:21.446Z,1.5
2022-09-09T09:14:35.864Z,1.7
2022-09-09T09:16:50.187Z,2.1
2022-09-09T09:19:04.558Z,1.8
2022-09-09T09:21:18.914Z,1.7
2022-09-09T09:23:33.262Z,1.5
2022-09-09T09:25:47.637Z,1.6
2022-09-09T09:28:01.998Z,1.3
2022-09-09T09:30:30.183Z,1.3
2022-09-09T09:32:33.682Z,1.5
2022-09-09T09:34:48.038Z,1.2
2022-09-09T09:37:02.484Z,1.3
2022-09-09T09:41:34.154Z,1.3
2022-09-09T09:43:49.518Z,1.1
2022-09-09T09:46:17.104Z,1.1
2022-09-09T09:48:21.183Z,1
2022-09-09T09:50:35.530Z,1.1
2022-09-09T09:52:49.901Z,1.2
2022-09-09T09:55:07.815Z,1.3
2022-09-09T09:57:21.587Z,1.2
2022-09-09T09:59:40.172Z,1.5
2022-09-09T10:01:53.409Z,1.4
2022-09-09T10:04:07.635Z,1.3
2022-09-09T10:06:23.008Z,1.2
2022-09-09T10:08:37.412Z,1.2
2022-09-09T10:10:51.777Z,1.2
2022-09-09T10:13:06.129Z,1.5
2022-09-09T10:15:20.488Z,1.5
2022-09-09T10:17:34.838Z,1.1
2022-09-09T10:19:49.159Z,1.4
2022-09-09T10:22:03.529Z,1.5
2022-09-09T10:24:17.878Z,1.2
2022-09-09T10:26:32.212Z,1.3
2022-09-09T10:28:46.541Z,1.3
2022-09-09T10:31:00.958Z,1.5
2022-09-09T10:33:15.311Z,1.3
2022-09-09T10:35:29.633Z,1.8
2022-09-09T10:37:44.000Z,1.6
2022-09-09T10:39:58.372Z,1.4
2022-09-09T10:42:12.699Z,1.5
2022-09-09T10:44:27.041Z,1.6
2022-09-09T10:46:41.460Z,1.7
2022-09-09T10:48:55.770Z,1.6
2022-09-09T10:51:10.093Z,1.8
2022-09-09T10:53:24.425Z,2
2022-09-09T10:55:38.758Z,1.7
2022-09-09T10:57:53.219Z,2.1
2022-09-09T11:00:07.580Z,1.7
2022-09-09T11:02:21.975Z,2
2022-09-09T11:04:36.350Z,1.9
2022-09-09T11:06:50.656Z,2
2022-09-09T11:09:05.006Z,1.6
2022-09-09T11:11:19.362Z,1.8
2022-09-09T11:13:33.708Z,1.7
2022-09-09T11:15:48.094Z,1.6
2022-09-09T11:18:02.441Z,1.8
2022-09-09T11:20:16.812Z,1.6
2022-09-09T11:22:31.115Z,1.8
2022-09-09T11:24:46.499Z,1.6
2022-09-09T11:27:00.840Z,1.6
2022-09-09T11:29:15.957Z,1.6
2022-09-09T11:31:30.344Z,1.6
2022-09-09T11:33:44.622Z,1.8
2022-09-09T11:35:59.017Z,1.5
2022-09-09T11:38:13.337Z,1.5
2022-09-09T11:40:27.690Z,1.8
2022-09-09T11:42:42.076Z,1.4
2022-09-09T11:44:56.429Z,1.6
2022-09-09T11:47:10.841Z,1.5
2022-09-09T11:49:25.180Z,1
2022-09-09T11:51:39.567Z,1.4
2022-09-09T11:53:53.900Z,1
2022-09-09T11:56:08.257Z,1.1
2022-09-09T11:58:22.604Z,1.1
2022-09-09T12:00:36.959Z,1.3
2022-09-09T12:02:52.330Z,1.2
2022-09-09T12:05:06.801Z,1.4
2022-09-09T12:07:21.029Z,1.5
2022-09-09T12:09:35.446Z,1.2
2022-09-09T12:11:49.841Z,1.2
2022-09-09T12:14:04.184Z,1.6
2022-09-09T12:16:18.554Z,1.8
2022-09-09T12:18:32.937Z,1.7
2022-09-09T12:20:47.224Z,1.5
2022-09-09T12:23:02.038Z,1.4
2022-09-09T12:25:19.188Z,1.5
2022-09-09T12:27:31.662Z,1.7
2022-09-09T12:29:46.122Z,1.6
2022-09-09T12:32:00.446Z,1.7
2022-09-09T12:34:14.898Z,1.3
2022-09-09T12:36:29.235Z,1.4
2022-09-09T12:38:43.593Z,1.2
2022-09-09T12:40:57.945Z,1.6
2022-09-09T12:43:13.274Z,1.3
2022-09-09T12:45:27.622Z,1.5
2022-09-09T12:47:41.961Z,1.3
2022-09-09T12:49:57.354Z,1.5
2022-09-09T12:52:11.727Z,1.4
2022-09-09T12:54:26.103Z,1.3
2022-09-09T12:56:40.410Z,1.4
2022-09-09T12:58:54.769Z,1.1
2022-09-09T13:01:09.153Z,1.3
2022-09-09T13:03:23.514Z,1.1
2022-09-09T13:05:37.857Z,1.4
2022-09-09T13:07:52.312Z,1.1
2022-09-09T13:10:08.161Z,1.4
2022-09-09T13:12:22.008Z,1.4
2022-09-09T13:14:36.405Z,1.1
2022-09-09T13:16:50.728Z,1.1
2022-09-09T13:19:05.242Z,1.1
2022-09-09T13:21:20.240Z,1.2
2022-09-09T13:23:34.613Z,0.9
2022-09-09T13:25:48.970Z,1.2
2022-09-09T13:28:03.286Z,1.2
2022-09-09T13:30:17.654Z,1.1
2022-09-09T13:32:31.987Z,1.3
2022-09-09T13:34:46.338Z,1.3
2022-09-09T13:37:01.698Z,1.6
2022-09-09T13:39:17.056Z,1.5
2022-09-09T13:41:31.530Z,1.5
2022-09-09T13:43:45.754Z,1.6
2022-09-09T13:46:00.207Z,1.8
2022-09-09T13:48:14.419Z,1.7
2022-09-09T13:50:28.779Z,1.7
2022-09-09T13:52:43.272Z,1.8
2022-09-09T13:54:57.641Z,1.9
2022-09-09T13:57:12.020Z,2
2022-09-09T13:59:38.013Z,1.9
2022-09-09T14:01:42.782Z,1.7
2022-09-09T14:03:57.131Z,1.5
2022-09-09T14:06:11.504Z,1.5
2022-09-09T14:08:25.854Z,1.4
2022-09-09T14:10:40.209Z,1.7
2022-09-09T14:12:54.762Z,1.9
2022-09-09T14:15:09.068Z,1.9
2022-09-09T14:17:23.424Z,2.1
2022-09-09T14:19:37.810Z,1.9
2022-09-09T14:21:52.172Z,1.9
2022-09-09T14:24:06.518Z,2.3
2022-09-09T14:26:20.880Z,1.8
2022-09-09T14:28:54.122Z,1.6
2022-09-09T14:30:52.621Z,2
2022-09-09T14:33:06.887Z,2.1
2022-09-09T14:35:21.237Z,1.7
2022-09-09T14:37:35.599Z,1.6
2022-09-09T14:39:50.125Z,1.9
2022-09-09T14:42:04.447Z,2
2022-09-09T14:44:19.286Z,1.6
2022-09-09T14:46:33.626Z,1.4
2022-09-09T14:48:47.976Z,1.6
2022-09-09T14:51:02.414Z,1.3
2022-09-09T14:53:16.732Z,1.4
2022-09-09T14:55:31.198Z,1.9
2022-09-09T14:57:45.563Z,1.9
2022-09-09T14:59:59.970Z,1.7
2022-09-09T15:02:14.418Z,1.5
2022-09-09T15:04:28.666Z,2
2022-09-09T15:06:43.071Z,1.7
2022-09-09T15:08:57.437Z,1.6
2022-09-09T15:11:11.786Z,1.6
2022-09-09T15:13:26.119Z,1.2
2022-09-09T15:15:40.520Z,1.5
2022-09-09T15:17:54.846Z,1.2
2022-09-09T15:20:09.231Z,1.7
2022-09-09T15:22:23.609Z,1.4
2022-09-09T15:24:37.968Z,1.3
2022-09-09T15:26:52.313Z,1.6
2022-09-09T15:29:06.670Z,1.7
2022-09-09T15:31:21.065Z,1.3
2022-09-09T15:33:35.453Z,1.5
2022-09-09T15:35:49.769Z,1.8
2022-09-09T15:38:04.143Z,1.4
2022-09-09T15:40:18.502Z,1.2
2022-09-09T15:42:32.807Z,1.7
2022-09-09T15:44:47.148Z,1.5
2022-09-09T15:47:01.543Z,1.1
2022-09-09T15:49:15.867Z,1.3
2022-09-09T15:51:45.318Z,1.2
2022-09-09T15:53:48.512Z,1.5
2022-09-09T15:56:02.841Z,1.1
2022-09-09T15:58:17.202Z,1
2022-09-09T16:00:31.587Z,1.1
2022-09-09T16:02:45.965Z,1.5
2022-09-09T16:05:00.762Z,1.5
2022-09-09T16:07:15.117Z,1.6
2022-09-09T16:09:29.499Z,1.2
2022-09-09T16:11:44.676Z,0.9
2022-09-09T16:13:59.888Z,1.2
2022-09-09T16:16:14.277Z,0.9
2022-09-09T16:18:28.669Z,0.8
2022-09-09T16:20:43.280Z,1.2
2022-09-09T16:22:57.682Z,0.9
2022-09-09T16:25:11.089Z,0.8
2022-09-09T16:27:25.470Z,1.2
2022-09-09T16:29:39.771Z,1
2022-09-09T16:31:54.925Z,1.1
2022-09-09T16:34:08.515Z,1
2022-09-09T16:36:22.862Z,0.9
2022-09-09T16:38:37.358Z,1.6
2022-09-09T16:40:51.841Z,1.7
2022-09-09T16:43:06.355Z,1
2022-09-09T16:45:20.666Z,1.3
2022-09-09T16:47:35.035Z,1.4
2022-09-09T16:49:49.451Z,1.5
2022-09-09T16:52:03.753Z,1.3
2022-09-09T16:54:18.200Z,1.5
2022-09-09T16:56:32.477Z,1.5
2022-09-09T16:58:46.803Z,1.5
2022-09-09T17:01:01.193Z,1.2
2022-09-09T17:03:15.644Z,1.6
2022-09-09T17:05:30.085Z,1.3
2022-09-09T17:07:44.474Z,1.4
2022-09-09T17:09:58.872Z,1.6
2022-09-09T17:12:13.389Z,1.8
2022-09-09T17:14:27.873Z,1.4
2022-09-09T17:16:43.234Z,1.9
2022-09-09T17:18:57.676Z,2.1
2022-09-09T17:21:12.048Z,3
2022-09-09T17:23:26.361Z,2.7
2022-09-09T17:25:40.730Z,1.7
2022-09-09T17:27:55.111Z,1.5
2022-09-09T17:30:09.476Z,2
2022-09-09T17:32:23.894Z,2.4
2022-09-09T17:34:38.193Z,2
2022-09-09T17:36:52.566Z,2.2
2022-09-09T17:39:06.881Z,1.9
2022-09-09T17:41:21.320Z,1.9
2022-09-09T17:43:35.771Z,1.6
2022-09-09T17:45:50.074Z,1.7
2022-09-09T17:48:04.451Z,1.9
2022-09-09T17:50:18.769Z,1.6
2022-09-09T17:52:33.251Z,1.8
2022-09-09T17:54:47.535Z,1.8
2022-09-09T17:57:01.882Z,1.7
2022-09-09T17:59:16.241Z,1.4
2022-09-09T18:01:30.621Z,1.5
2022-09-09T18:03:45.150Z,1.9
2022-09-09T18:05:59.432Z,1.8
2022-09-09T18:08:14.105Z,1.7
2022-09-09T18:10:28.447Z,1.4
2022-09-09T18:12:42.819Z,1.8
2022-09-09T18:14:59.998Z,1.5
2022-09-09T18:17:12.511Z,1.5
2022-09-09T18:19:29.513Z,1.7
2022-09-09T18:22:04.712Z,1.8
2022-09-09T18:24:45.180Z,1.7
2022-09-09T18:27:00.502Z,1.6
2022-09-09T18:29:14.926Z,1.7
2022-09-09T18:31:29.344Z,1.7
2022-09-09T18:33:43.617Z,1.6
2022-09-09T18:35:57.991Z,1.7
2022-09-09T18:38:12.611Z,1.9
2022-09-09T18:40:26.987Z,1.7
2022-09-09T18:42:41.414Z,1.8
2022-09-09T18:44:56.154Z,1.4
2022-09-09T18:47:11.278Z,1.8
2022-09-09T18:49:25.657Z,1.7
2022-09-09T18:51:42.266Z,2
2022-09-09T18:53:59.267Z,1.6
2022-09-09T18:56:13.766Z,1.7
2022-09-09T18:58:32.759Z,1.6
2022-09-09T19:00:56.559Z,2
2022-09-09T19:03:21.245Z,2.1
2022-09-09T19:05:35.487Z,1.6
2022-09-09T19:07:49.827Z,1.7
2022-09-09T19:10:04.239Z,1.8
2022-09-09T19:12:18.679Z,1.9
2022-09-09T19:14:32.999Z,1.9
2022-09-09T19:16:47.396Z,1.6
2022-09-09T19:19:02.156Z,1.8
2022-09-09T19:21:16.819Z,2.1
2022-09-09T19:23:31.386Z,2
2022-09-09T19:25:47.619Z,1.8
2022-09-09T19:28:03.018Z,1.9
2022-09-09T19:30:17.374Z,2.1
2022-09-09T19:32:52.559Z,1.7
2022-09-09T19:34:49.610Z,1.8
2022-09-09T19:37:03.985Z,2.2
2022-09-09T19:39:18.402Z,2.3
2022-09-09T19:41:32.769Z,1.9
2022-09-09T19:43:47.280Z,2.1
2022-09-09T19:46:02.638Z,2.1
2022-09-09T19:48:17.036Z,2.4
2022-09-09T19:50:31.281Z,1.9
2022-09-09T19:52:45.675Z,1.9
2022-09-09T19:55:00.061Z,2.1
2022-09-09T19:57:14.456Z,2.2
2022-09-09T19:59:29.820Z,1.9
2022-09-09T20:01:44.206Z,2.3
2022-09-09T20:03:59.550Z,1.6
2022-09-09T20:06:13.912Z,2
2022-09-09T20:08:28.339Z,2
2022-09-09T20:10:42.658Z,2
2022-09-09T20:12:57.132Z,1.6
2022-09-09T20:15:11.492Z,2
2022-09-09T20:17:25.816Z,2.5
2022-09-09T20:19:40.156Z,2
2022-09-09T20:21:54.494Z,1.8
2022-09-09T20:24:08.942Z,2
2022-09-09T20:26:23.370Z,1.6
2022-09-09T20:28:37.738Z,2
2022-09-09T20:30:52.181Z,1.8
2022-09-09T20:33:06.566Z,1.8
2022-09-09T20:35:20.936Z,2.1
2022-09-09T20:37:35.318Z,1.8
2022-09-09T20:39:49.746Z,1.9
2022-09-09T20:42:04.066Z,1.7
2022-09-09T20:44:18.391Z,2
2022-09-09T20:46:32.906Z,1.6
2022-09-09T20:48:47.226Z,1.6
2022-09-09T20:51:01.773Z,1.9
2022-09-09T20:53:16.125Z,1.4
2022-09-09T20:55:30.471Z,2
2022-09-09T20:57:44.811Z,2
2022-09-09T20:59:59.182Z,1.6
2022-09-09T21:02:13.566Z,2
2022-09-09T21:04:27.865Z,1.7
2022-09-09T21:06:42.231Z,1.9
2022-09-09T21:08:56.565Z,1.9
2022-09-09T21:11:11.056Z,1.7
2022-09-09T21:13:25.340Z,2
2022-09-09T21:15:39.688Z,1.9
2022-09-09T21:17:54.069Z,1.7
2022-09-09T21:20:08.383Z,1.7
2022-09-09T21:22:22.757Z,1.8
2022-09-09T21:24:37.094Z,1.7
2022-09-09T21:26:51.492Z,1.7
2022-09-09T21:29:05.856Z,1.8
